sensor_id;sensor_type;location;lat;lon;timestamp;pressure;altitude;pressure_sealevel;temperature;humidity
39141;BME280;24875;48.436;10.298;2023-04-01T00:00:58;95035.84;;;8.86;98.63
39141;BME280;24875;48.436;10.298;2023-04-01T00:03:26;95035.09;;;8.99;98.53
39141;BME280;24875;48.436;10.298;2023-04-01T00:05:54;95025.94;;;8.88;98.69
39141;BME280;24875;48.436;10.298;2023-04-01T00:08:21;95030.56;;;8.80;99.30
39141;BME280;24875;48.436;10.298;2023-04-01T00:10:47;95027.56;;;8.89;98.96
39141;BME280;24875;48.436;10.298;2023-04-01T00:13:15;95028.91;;;8.72;99.92
39141;BME280;24875;48.436;10.298;2023-04-01T00:15:42;95019.44;;;8.78;100.00
39141;BME280;24875;48.436;10.298;2023-04-01T00:18:08;95022.44;;;8.68;100.00
39141;BME280;24875;48.436;10.298;2023-04-01T00:20:36;95022.88;;;8.78;100.00
39141;BME280;24875;48.436;10.298;2023-04-01T00:23:03;95023.44;;;8.67;100.00
39141;BME280;24875;48.436;10.298;2023-04-01T00:25:30;95028.06;;;8.65;100.00
39141;BME280;24875;48.436;10.298;2023-04-01T00:27:56;95018.41;;;8.72;100.00
39141;BME280;24875;48.436;10.298;2023-04-01T00:30:23;95023.78;;;8.58;100.00
39141;BME280;24875;48.436;10.298;2023-04-01T00:32:51;95025.84;;;8.69;100.00
39141;BME280;24875;48.436;10.298;2023-04-01T00:35:17;95041.97;;;8.59;100.00
39141;BME280;24875;48.436;10.298;2023-04-01T00:37:45;95037.31;;;8.61;100.00
39141;BME280;24875;48.436;10.298;2023-04-01T00:40:25;95034.94;;;8.66;100.00
39141;BME280;24875;48.436;10.298;2023-04-01T00:42:52;95027.03;;;8.60;100.00
39141;BME280;24875;48.436;10.298;2023-04-01T00:45:31;95024.06;;;8.69;100.00
39141;BME280;24875;48.436;10.298;2023-04-01T00:48:00;95025.44;;;8.65;100.00
39141;BME280;24875;48.436;10.298;2023-04-01T00:50:28;95019.97;;;8.60;100.00
39141;BME280;24875;48.436;10.298;2023-04-01T00:52:57;95016.72;;;8.58;100.00
39141;BME280;24875;48.436;10.298;2023-04-01T00:55:25;95014.28;;;8.57;100.00
39141;BME280;24875;48.436;10.298;2023-04-01T00:57:53;95016.97;;;8.36;100.00
39141;BME280;24875;48.436;10.298;2023-04-01T01:00:22;95010.53;;;8.39;100.00
39141;BME280;24875;48.436;10.298;2023-04-01T01:02:50;95022.09;;;8.44;100.00
39141;BME280;24875;48.436;10.298;2023-04-01T01:05:19;95013.78;;;8.41;100.00
39141;BME280;24875;48.436;10.298;2023-04-01T01:07:53;95003.69;;;8.38;100.00
39141;BME280;24875;48.436;10.298;2023-04-01T01:10:26;95009.75;;;8.38;100.00
39141;BME280;24875;48.436;10.298;2023-04-01T01:13:03;94999.66;;;8.42;100.00
39141;BME280;24875;48.436;10.298;2023-04-01T01:15:32;95001.03;;;8.31;100.00
39141;BME280;24875;48.436;10.298;2023-04-01T01:18:05;94990.69;;;8.30;100.00
39141;BME280;24875;48.436;10.298;2023-04-01T01:20:57;94993.44;;;8.43;100.00
39141;BME280;24875;48.436;10.298;2023-04-01T01:26:48;94994.94;;;8.31;100.00
39141;BME280;24875;48.436;10.298;2023-04-01T01:29:35;94998.16;;;8.26;100.00
39141;BME280;24875;48.436;10.298;2023-04-01T01:32:14;95004.41;;;8.25;100.00
39141;BME280;24875;48.436;10.298;2023-04-01T01:34:50;95008.84;;;8.25;100.00
39141;BME280;24875;48.436;10.298;2023-04-01T01:37:25;95008.22;;;8.23;100.00
39141;BME280;24875;48.436;10.298;2023-04-01T01:39:56;95000.75;;;8.20;100.00
39141;BME280;24875;48.436;10.298;2023-04-01T01:42:25;94997.91;;;8.15;100.00
39141;BME280;24875;48.436;10.298;2023-04-01T01:44:55;94988.88;;;8.24;100.00
39141;BME280;24875;48.436;10.298;2023-04-01T01:47:25;94984.78;;;8.15;100.00
39141;BME280;24875;48.436;10.298;2023-04-01T01:49:53;94988.25;;;8.22;100.00
39141;BME280;24875;48.436;10.298;2023-04-01T01:52:23;94992.66;;;8.15;100.00
39141;BME280;24875;48.436;10.298;2023-04-01T01:54:51;95007.47;;;8.08;100.00
39141;BME280;24875;48.436;10.298;2023-04-01T01:57:21;94986.94;;;8.11;100.00
39141;BME280;24875;48.436;10.298;2023-04-01T01:59:50;94998.81;;;8.07;100.00
39141;BME280;24875;48.436;10.298;2023-04-01T02:02:19;94994.91;;;7.97;100.00
39141;BME280;24875;48.436;10.298;2023-04-01T02:04:45;94994.72;;;7.98;100.00
39141;BME280;24875;48.436;10.298;2023-04-01T02:07:16;94980.44;;;8.07;100.00
39141;BME280;24875;48.436;10.298;2023-04-01T02:09:47;94988.53;;;8.06;100.00
39141;BME280;24875;48.436;10.298;2023-04-01T02:12:16;94992.34;;;8.03;100.00
39141;BME280;24875;48.436;10.298;2023-04-01T02:14:46;94989.50;;;8.05;100.00
39141;BME280;24875;48.436;10.298;2023-04-01T02:17:17;94991.50;;;8.03;100.00
39141;BME280;24875;48.436;10.298;2023-04-01T02:19:48;94992.09;;;7.98;100.00
39141;BME280;24875;48.436;10.298;2023-04-01T02:22:18;94999.38;;;8.03;100.00
39141;BME280;24875;48.436;10.298;2023-04-01T02:24:48;94996.91;;;7.95;100.00
39141;BME280;24875;48.436;10.298;2023-04-01T02:27:16;95003.53;;;7.91;100.00
39141;BME280;24875;48.436;10.298;2023-04-01T02:29:43;94999.28;;;7.90;100.00
39141;BME280;24875;48.436;10.298;2023-04-01T02:32:09;94996.84;;;7.88;100.00
39141;BME280;24875;48.436;10.298;2023-04-01T02:34:36;95007.94;;;7.84;100.00
39141;BME280;24875;48.436;10.298;2023-04-01T02:37:03;94999.69;;;7.87;100.00
39141;BME280;24875;48.436;10.298;2023-04-01T02:39:29;95005.91;;;7.86;100.00
39141;BME280;24875;48.436;10.298;2023-04-01T02:41:57;95005.41;;;7.97;100.00
39141;BME280;24875;48.436;10.298;2023-04-01T02:44:24;95010.22;;;7.93;100.00
39141;BME280;24875;48.436;10.298;2023-04-01T02:46:50;95005.34;;;7.90;100.00
39141;BME280;24875;48.436;10.298;2023-04-01T02:49:17;95011.41;;;7.91;100.00
39141;BME280;24875;48.436;10.298;2023-04-01T02:51:44;95013.06;;;7.98;100.00
39141;BME280;24875;48.436;10.298;2023-04-01T02:54:10;95023.72;;;7.90;100.00
39141;BME280;24875;48.436;10.298;2023-04-01T02:56:37;95012.19;;;7.91;100.00
39141;BME280;24875;48.436;10.298;2023-04-01T02:59:05;95014.66;;;7.93;100.00
39141;BME280;24875;48.436;10.298;2023-04-01T03:01:31;95021.66;;;7.86;100.00
39141;BME280;24875;48.436;10.298;2023-04-01T03:03:57;95027.34;;;7.89;100.00
39141;BME280;24875;48.436;10.298;2023-04-01T03:06:24;95027.53;;;7.88;100.00
39141;BME280;24875;48.436;10.298;2023-04-01T03:08:50;95035.50;;;7.80;100.00
39141;BME280;24875;48.436;10.298;2023-04-01T03:11:17;95036.38;;;7.87;100.00
39141;BME280;24875;48.436;10.298;2023-04-01T03:13:43;95036.53;;;7.79;100.00
39141;BME280;24875;48.436;10.298;2023-04-01T03:16:11;95040.41;;;7.83;100.00
39141;BME280;24875;48.436;10.298;2023-04-01T03:18:37;95035.50;;;7.80;100.00
39141;BME280;24875;48.436;10.298;2023-04-01T03:21:14;95032.44;;;7.97;100.00
39141;BME280;24875;48.436;10.298;2023-04-01T03:23:41;95037.00;;;7.89;100.00
39141;BME280;24875;48.436;10.298;2023-04-01T03:26:08;95031.53;;;7.84;100.00
39141;BME280;24875;48.436;10.298;2023-04-01T03:28:34;95020.91;;;7.92;100.00
39141;BME280;24875;48.436;10.298;2023-04-01T03:31:01;95034.38;;;7.89;100.00
39141;BME280;24875;48.436;10.298;2023-04-01T03:33:28;95045.31;;;7.92;100.00
39141;BME280;24875;48.436;10.298;2023-04-01T03:35:55;95043.25;;;7.88;100.00
39141;BME280;24875;48.436;10.298;2023-04-01T03:38:21;95047.63;;;7.81;100.00
39141;BME280;24875;48.436;10.298;2023-04-01T03:40:48;95050.38;;;7.73;100.00
39141;BME280;24875;48.436;10.298;2023-04-01T03:43:14;95050.00;;;7.76;100.00
39141;BME280;24875;48.436;10.298;2023-04-01T03:45:43;95038.06;;;7.94;100.00
39141;BME280;24875;48.436;10.298;2023-04-01T03:48:10;95048.00;;;7.78;100.00
39141;BME280;24875;48.436;10.298;2023-04-01T03:50:37;95046.13;;;7.93;100.00
39141;BME280;24875;48.436;10.298;2023-04-01T03:53:04;95045.19;;;7.80;100.00
39141;BME280;24875;48.436;10.298;2023-04-01T03:55:30;95047.81;;;7.80;100.00
39141;BME280;24875;48.436;10.298;2023-04-01T03:57:57;95047.38;;;7.76;100.00
39141;BME280;24875;48.436;10.298;2023-04-01T04:00:23;95040.78;;;7.59;100.00
39141;BME280;24875;48.436;10.298;2023-04-01T04:02:50;95038.91;;;7.74;100.00
39141;BME280;24875;48.436;10.298;2023-04-01T04:05:16;95044.94;;;7.75;100.00
39141;BME280;24875;48.436;10.298;2023-04-01T04:07:44;95044.34;;;7.73;100.00
39141;BME280;24875;48.436;10.298;2023-04-01T04:10:10;95046.66;;;7.61;100.00
39141;BME280;24875;48.436;10.298;2023-04-01T04:12:37;95040.13;;;7.57;100.00
39141;BME280;24875;48.436;10.298;2023-04-01T04:15:04;95043.41;;;7.59;100.00
39141;BME280;24875;48.436;10.298;2023-04-01T04:17:31;95037.47;;;7.51;100.00
39141;BME280;24875;48.436;10.298;2023-04-01T04:19:57;95026.38;;;7.49;100.00
39141;BME280;24875;48.436;10.298;2023-04-01T04:22:24;95041.59;;;7.39;100.00
39141;BME280;24875;48.436;10.298;2023-04-01T04:24:51;95039.53;;;7.55;100.00
39141;BME280;24875;48.436;10.298;2023-04-01T04:27:18;95041.50;;;7.53;100.00
39141;BME280;24875;48.436;10.298;2023-04-01T04:29:44;95051.06;;;7.61;100.00
39141;BME280;24875;48.436;10.298;2023-04-01T04:32:11;95037.16;;;7.60;100.00
39141;BME280;24875;48.436;10.298;2023-04-01T04:34:37;95032.53;;;7.62;100.00
39141;BME280;24875;48.436;10.298;2023-04-01T04:37:04;95037.75;;;7.62;100.00
39141;BME280;24875;48.436;10.298;2023-04-01T04:39:30;95040.34;;;7.56;100.00
39141;BME280;24875;48.436;10.298;2023-04-01T04:41:58;95039.84;;;7.67;100.00
39141;BME280;24875;48.436;10.298;2023-04-01T04:44:25;95036.78;;;7.63;100.00
39141;BME280;24875;48.436;10.298;2023-04-01T04:46:51;95028.56;;;7.66;100.00
39141;BME280;24875;48.436;10.298;2023-04-01T04:49:17;95031.47;;;7.57;100.00
39141;BME280;24875;48.436;10.298;2023-04-01T04:51:44;95031.91;;;7.60;100.00
39141;BME280;24875;48.436;10.298;2023-04-01T04:54:11;95031.66;;;7.55;100.00
39141;BME280;24875;48.436;10.298;2023-04-01T04:56:37;95032.91;;;7.59;100.00
39141;BME280;24875;48.436;10.298;2023-04-01T04:59:05;95039.09;;;7.73;100.00
39141;BME280;24875;48.436;10.298;2023-04-01T05:01:32;95024.91;;;7.67;100.00
39141;BME280;24875;48.436;10.298;2023-04-01T05:03:59;95027.91;;;7.64;100.00
39141;BME280;24875;48.436;10.298;2023-04-01T05:06:26;95035.41;;;7.67;100.00
39141;BME280;24875;48.436;10.298;2023-04-01T05:08:55;95037.09;;;7.75;100.00
39141;BME280;24875;48.436;10.298;2023-04-01T05:11:21;95033.84;;;7.73;100.00
39141;BME280;24875;48.436;10.298;2023-04-01T05:13:48;95034.66;;;7.73;100.00
39141;BME280;24875;48.436;10.298;2023-04-01T05:16:18;95032.78;;;7.88;100.00
39141;BME280;24875;48.436;10.298;2023-04-01T05:18:45;95025.41;;;7.77;100.00
39141;BME280;24875;48.436;10.298;2023-04-01T05:21:13;95033.13;;;7.85;100.00
39141;BME280;24875;48.436;10.298;2023-04-01T05:23:40;95029.34;;;7.67;100.00
39141;BME280;24875;48.436;10.298;2023-04-01T05:26:09;95033.03;;;7.72;100.00
39141;BME280;24875;48.436;10.298;2023-04-01T05:28:36;95031.78;;;7.68;100.00
39141;BME280;24875;48.436;10.298;2023-04-01T05:31:04;95035.44;;;7.74;100.00
39141;BME280;24875;48.436;10.298;2023-04-01T05:33:32;95034.06;;;7.78;100.00
39141;BME280;24875;48.436;10.298;2023-04-01T05:36:05;95039.63;;;7.89;100.00
39141;BME280;24875;48.436;10.298;2023-04-01T05:38:32;95040.88;;;7.72;100.00
39141;BME280;24875;48.436;10.298;2023-04-01T05:40:59;95041.19;;;7.84;100.00
39141;BME280;24875;48.436;10.298;2023-04-01T05:43:26;95028.47;;;7.81;100.00
39141;BME280;24875;48.436;10.298;2023-04-01T05:45:53;95038.38;;;7.85;100.00
39141;BME280;24875;48.436;10.298;2023-04-01T05:48:19;95038.56;;;7.84;100.00
39141;BME280;24875;48.436;10.298;2023-04-01T05:50:47;95032.69;;;8.02;100.00
39141;BME280;24875;48.436;10.298;2023-04-01T05:53:13;95037.13;;;8.02;100.00
39141;BME280;24875;48.436;10.298;2023-04-01T05:55:40;95034.91;;;8.05;100.00
39141;BME280;24875;48.436;10.298;2023-04-01T05:58:06;95034.94;;;8.12;100.00
39141;BME280;24875;48.436;10.298;2023-04-01T06:00:33;95032.00;;;8.15;100.00
39141;BME280;24875;48.436;10.298;2023-04-01T06:02:59;95033.34;;;8.11;100.00
39141;BME280;24875;48.436;10.298;2023-04-01T06:05:28;95021.34;;;8.23;100.00
39141;BME280;24875;48.436;10.298;2023-04-01T06:07:58;95029.91;;;8.31;100.00
39141;BME280;24875;48.436;10.298;2023-04-01T06:10:36;95023.66;;;8.39;100.00
39141;BME280;24875;48.436;10.298;2023-04-01T06:13:09;95024.66;;;8.31;100.00
39141;BME280;24875;48.436;10.298;2023-04-01T06:15:40;95034.41;;;8.44;100.00
39141;BME280;24875;48.436;10.298;2023-04-01T06:18:49;95030.38;;;8.48;100.00
39141;BME280;24875;48.436;10.298;2023-04-01T06:24:40;95024.44;;;8.66;100.00
39141;BME280;24875;48.436;10.298;2023-04-01T06:27:17;95029.50;;;8.74;100.00
39141;BME280;24875;48.436;10.298;2023-04-01T06:30:00;95030.97;;;8.83;99.68
39141;BME280;24875;48.436;10.298;2023-04-01T06:32:41;95034.22;;;8.85;99.32
39141;BME280;24875;48.436;10.298;2023-04-01T06:35:22;95033.22;;;8.86;98.84
39141;BME280;24875;48.436;10.298;2023-04-01T06:38:14;95026.78;;;8.89;98.42
39141;BME280;24875;48.436;10.298;2023-04-01T06:41:01;95032.50;;;9.05;97.53
39141;BME280;24875;48.436;10.298;2023-04-01T06:43:39;95037.91;;;8.97;95.92
39141;BME280;24875;48.436;10.298;2023-04-01T06:46:13;95037.94;;;9.04;96.44
39141;BME280;24875;48.436;10.298;2023-04-01T06:48:56;95041.81;;;9.14;95.67
39141;BME280;24875;48.436;10.298;2023-04-01T06:51:37;95037.31;;;9.02;93.89
39141;BME280;24875;48.436;10.298;2023-04-01T06:54:09;95036.59;;;9.27;93.48
39141;BME280;24875;48.436;10.298;2023-04-01T06:56:41;95042.09;;;9.38;93.23
39141;BME280;24875;48.436;10.298;2023-04-01T06:59:12;95041.28;;;9.38;91.74
39141;BME280;24875;48.436;10.298;2023-04-01T07:01:45;95044.56;;;9.53;91.39
39141;BME280;24875;48.436;10.298;2023-04-01T07:04:15;95040.47;;;9.37;89.97
39141;BME280;24875;48.436;10.298;2023-04-01T07:06:47;95039.84;;;9.35;91.12
39141;BME280;24875;48.436;10.298;2023-04-01T07:09:18;95034.00;;;9.40;89.63
39141;BME280;24875;48.436;10.298;2023-04-01T07:11:47;95046.38;;;9.46;90.51
39141;BME280;24875;48.436;10.298;2023-04-01T07:14:17;95029.22;;;9.63;89.28
39141;BME280;24875;48.436;10.298;2023-04-01T07:16:48;95029.81;;;9.71;89.80
39141;BME280;24875;48.436;10.298;2023-04-01T07:19:18;95029.22;;;9.75;89.02
39141;BME280;24875;48.436;10.298;2023-04-01T07:21:49;95035.06;;;9.71;88.81
39141;BME280;24875;48.436;10.298;2023-04-01T07:24:21;95031.63;;;9.64;87.94
39141;BME280;24875;48.436;10.298;2023-04-01T07:26:53;95032.22;;;9.60;88.80
39141;BME280;24875;48.436;10.298;2023-04-01T07:29:20;95031.63;;;9.58;89.19
39141;BME280;24875;48.436;10.298;2023-04-01T08:20:18;95032.84;;;9.81;89.27
39141;BME280;24875;48.436;10.298;2023-04-01T08:22:51;95011.38;;;9.71;89.41
39141;BME280;24875;48.436;10.298;2023-04-01T08:25:24;95018.28;;;9.85;88.71
39141;BME280;24875;48.436;10.298;2023-04-01T08:27:54;95012.63;;;9.94;88.69
39141;BME280;24875;48.436;10.298;2023-04-01T08:30:24;95003.94;;;10.00;89.93
39141;BME280;24875;48.436;10.298;2023-04-01T08:32:55;95013.47;;;10.01;90.65
39141;BME280;24875;48.436;10.298;2023-04-01T08:35:27;95017.72;;;10.15;89.37
39141;BME280;24875;48.436;10.298;2023-04-01T08:38:00;95017.09;;;10.26;89.42
39141;BME280;24875;48.436;10.298;2023-04-01T08:40:41;94995.84;;;10.21;88.05
39141;BME280;24875;48.436;10.298;2023-04-01T08:43:16;94995.66;;;10.16;87.50
39141;BME280;24875;48.436;10.298;2023-04-01T08:46:06;95005.16;;;10.30;86.93
39141;BME280;24875;48.436;10.298;2023-04-01T08:48:50;95000.44;;;10.45;85.84
39141;BME280;24875;48.436;10.298;2023-04-01T08:51:54;94997.25;;;10.36;85.82
39141;BME280;24875;48.436;10.298;2023-04-01T08:54:42;95002.50;;;10.43;86.08
39141;BME280;24875;48.436;10.298;2023-04-01T08:57:18;95004.72;;;10.39;86.40
39141;BME280;24875;48.436;10.298;2023-04-01T08:59:57;95002.66;;;10.54;87.75
39141;BME280;24875;48.436;10.298;2023-04-01T09:03:02;94997.59;;;10.59;87.63
39141;BME280;24875;48.436;10.298;2023-04-01T09:09:06;95024.75;;;10.47;87.43
39141;BME280;24875;48.436;10.298;2023-04-01T09:11:58;95022.97;;;10.22;88.97
39141;BME280;24875;48.436;10.298;2023-04-01T09:14:41;95012.84;;;10.25;88.99
39141;BME280;24875;48.436;10.298;2023-04-01T09:17:38;95022.19;;;10.15;90.27
39141;BME280;24875;48.436;10.298;2023-04-01T09:20:23;95023.41;;;10.06;91.55
39141;BME280;24875;48.436;10.298;2023-04-01T09:23:05;95019.34;;;9.97;92.15
39141;BME280;24875;48.436;10.298;2023-04-01T09:25:53;95012.63;;;9.94;93.09
39141;BME280;24875;48.436;10.298;2023-04-01T09:31:08;95020.31;;;9.89;92.18
39141;BME280;24875;48.436;10.298;2023-04-01T09:33:47;95024.38;;;9.72;94.05
39141;BME280;24875;48.436;10.298;2023-04-01T09:36:33;95030.84;;;9.76;93.58
39141;BME280;24875;48.436;10.298;2023-04-01T09:39:18;95026.38;;;9.77;95.47
39141;BME280;24875;48.436;10.298;2023-04-01T09:41:59;95026.16;;;9.66;96.40
39141;BME280;24875;48.436;10.298;2023-04-01T09:44:34;95016.25;;;9.55;97.07
39141;BME280;24875;48.436;10.298;2023-04-01T09:47:16;95023.94;;;9.63;98.36
39141;BME280;24875;48.436;10.298;2023-04-01T09:49:57;95024.16;;;9.55;100.00
39141;BME280;24875;48.436;10.298;2023-04-01T09:52:32;95025.94;;;9.48;98.43
39141;BME280;24875;48.436;10.298;2023-04-01T09:55:19;95028.78;;;9.46;97.56
39141;BME280;24875;48.436;10.298;2023-04-01T09:58:27;95029.41;;;9.48;96.50
39141;BME280;24875;48.436;10.298;2023-04-01T10:04:17;95017.06;;;9.55;97.77
39141;BME280;24875;48.436;10.298;2023-04-01T10:10:46;95030.84;;;9.70;99.51
39141;BME280;24875;48.436;10.298;2023-04-01T10:16:33;95039.72;;;9.63;96.41
39141;BME280;24875;48.436;10.298;2023-04-01T10:19:16;95043.97;;;9.64;97.62
39141;BME280;24875;48.436;10.298;2023-04-01T10:22:08;95033.03;;;9.54;95.72
39141;BME280;24875;48.436;10.298;2023-04-01T10:24:53;95024.94;;;9.62;95.70
39141;BME280;24875;48.436;10.298;2023-04-01T10:27:34;95034.59;;;9.35;95.00
39141;BME280;24875;48.436;10.298;2023-04-01T10:30:46;95043.34;;;9.55;96.23
39141;BME280;24875;48.436;10.298;2023-04-01T10:33:38;95030.41;;;9.54;95.33
39141;BME280;24875;48.436;10.298;2023-04-01T10:36:35;95042.31;;;9.43;95.30
39141;BME280;24875;48.436;10.298;2023-04-01T10:39:32;95032.81;;;9.49;93.61
39141;BME280;24875;48.436;10.298;2023-04-01T10:54:40;95023.16;;;9.81;91.06
39141;BME280;24875;48.436;10.298;2023-04-01T10:57:25;95026.03;;;9.99;92.42
39141;BME280;24875;48.436;10.298;2023-04-01T11:00:16;95022.78;;;9.97;93.51
39141;BME280;24875;48.436;10.298;2023-04-01T11:03:11;95026.00;;;9.93;91.15
39141;BME280;24875;48.436;10.298;2023-04-01T11:09:15;95035.69;;;9.73;95.85
39141;BME280;24875;48.436;10.298;2023-04-01T11:21:49;95046.63;;;9.83;93.51
39141;BME280;24875;48.436;10.298;2023-04-01T11:24:32;95035.69;;;9.79;93.60
39141;BME280;24875;48.436;10.298;2023-04-01T11:27:16;95037.75;;;9.90;93.53
39141;BME280;24875;48.436;10.298;2023-04-01T11:29:57;95038.75;;;9.76;94.32
39141;BME280;24875;48.436;10.298;2023-04-01T11:32:38;95040.53;;;9.82;95.95
39141;BME280;24875;48.436;10.298;2023-04-01T11:35:23;95044.59;;;9.78;96.17
39141;BME280;24875;48.436;10.298;2023-04-01T11:37:57;95054.53;;;9.83;96.68
39141;BME280;24875;48.436;10.298;2023-04-01T11:40:36;95055.53;;;9.82;98.14
39141;BME280;24875;48.436;10.298;2023-04-01T11:43:11;95050.25;;;9.75;98.08
39141;BME280;24875;48.436;10.298;2023-04-01T11:45:46;95053.09;;;9.68;98.90
39141;BME280;24875;48.436;10.298;2023-04-01T11:48:38;95058.56;;;9.85;100.00
39141;BME280;24875;48.436;10.298;2023-04-01T11:51:21;95053.88;;;9.62;100.00
39141;BME280;24875;48.436;10.298;2023-04-01T11:54:00;95072.06;;;9.50;100.00
39141;BME280;24875;48.436;10.298;2023-04-01T11:56:48;95065.22;;;9.68;100.00
39141;BME280;24875;48.436;10.298;2023-04-01T12:02:23;95074.44;;;9.39;100.00
39141;BME280;24875;48.436;10.298;2023-04-01T12:04:58;95060.31;;;9.40;100.00
39141;BME280;24875;48.436;10.298;2023-04-01T12:07:41;95057.03;;;9.38;100.00
39141;BME280;24875;48.436;10.298;2023-04-01T12:10:17;95059.47;;;9.39;100.00
39141;BME280;24875;48.436;10.298;2023-04-01T12:12:54;95068.41;;;9.45;100.00
39141;BME280;24875;48.436;10.298;2023-04-01T12:15:32;95049.81;;;9.46;100.00
39141;BME280;24875;48.436;10.298;2023-04-01T12:18:09;95063.16;;;9.51;100.00
39141;BME280;24875;48.436;10.298;2023-04-01T12:20:49;95054.91;;;9.73;100.00
39141;BME280;24875;48.436;10.298;2023-04-01T12:23:42;95058.38;;;9.93;100.00
39141;BME280;24875;48.436;10.298;2023-04-01T12:26:30;95057.94;;;9.70;99.36
39141;BME280;24875;48.436;10.298;2023-04-01T12:29:23;95061.19;;;9.79;97.80
39141;BME280;24875;48.436;10.298;2023-04-01T12:32:03;95051.47;;;9.86;97.48
39141;BME280;24875;48.436;10.298;2023-04-01T12:37:41;95060.03;;;10.20;98.20
39141;BME280;24875;48.436;10.298;2023-04-01T12:40:27;95062.06;;;10.31;97.13
39141;BME280;24875;48.436;10.298;2023-04-01T12:43:02;95056.81;;;10.25;96.65
39141;BME280;24875;48.436;10.298;2023-04-01T12:45:34;95054.97;;;10.25;97.37
39141;BME280;24875;48.436;10.298;2023-04-01T12:48:26;95062.25;;;10.42;96.17
39141;BME280;24875;48.436;10.298;2023-04-01T12:51:23;95066.50;;;10.37;97.01
39141;BME280;24875;48.436;10.298;2023-04-01T12:54:18;95063.06;;;10.49;97.08
39141;BME280;24875;48.436;10.298;2023-04-01T12:56:58;95059.63;;;10.42;96.71
39141;BME280;24875;48.436;10.298;2023-04-01T12:59:43;95059.19;;;10.52;95.61
39141;BME280;24875;48.436;10.298;2023-04-01T13:02:27;95058.97;;;10.60;95.31
39141;BME280;24875;48.436;10.298;2023-04-01T13:05:24;95064.88;;;10.62;94.06
39141;BME280;24875;48.436;10.298;2023-04-01T13:08:05;95053.09;;;10.71;95.11
39141;BME280;24875;48.436;10.298;2023-04-01T13:10:48;95061.59;;;10.73;93.27
39141;BME280;24875;48.436;10.298;2023-04-01T13:13:31;95055.06;;;10.88;94.09
39141;BME280;24875;48.436;10.298;2023-04-01T13:16:06;95064.13;;;11.11;92.64
39141;BME280;24875;48.436;10.298;2023-04-01T13:18:46;95055.31;;;11.37;92.64
39141;BME280;24875;48.436;10.298;2023-04-01T13:21:19;95057.75;;;11.32;89.69
39141;BME280;24875;48.436;10.298;2023-04-01T13:23:56;95065.09;;;11.23;90.59
39141;BME280;24875;48.436;10.298;2023-04-01T13:26:33;95068.41;;;10.99;91.48
39141;BME280;24875;48.436;10.298;2023-04-01T13:29:04;95072.25;;;11.10;91.47
39141;BME280;24875;48.436;10.298;2023-04-01T13:31:44;95068.84;;;10.90;92.24
39141;BME280;24875;48.436;10.298;2023-04-01T13:34:24;95077.69;;;11.15;93.23
39141;BME280;24875;48.436;10.298;2023-04-01T13:37:09;95075.75;;;10.85;92.17
39141;BME280;24875;48.436;10.298;2023-04-01T13:40:00;95055.91;;;10.76;93.59
39141;BME280;24875;48.436;10.298;2023-04-01T13:42:32;95059.56;;;10.81;93.37
39141;BME280;24875;48.436;10.298;2023-04-01T13:45:03;95068.41;;;10.99;92.31
39141;BME280;24875;48.436;10.298;2023-04-01T13:51:06;95070.34;;;11.23;91.75
39141;BME280;24875;48.436;10.298;2023-04-01T13:54:17;95071.09;;;11.43;90.90
39141;BME280;24875;48.436;10.298;2023-04-01T13:57:00;95072.28;;;11.54;90.67
39141;BME280;24875;48.436;10.298;2023-04-01T13:59:58;95083.44;;;11.43;89.46
39141;BME280;24875;48.436;10.298;2023-04-01T14:02:44;95086.91;;;11.43;90.18
39141;BME280;24875;48.436;10.298;2023-04-01T14:05:35;95083.91;;;11.33;89.46
39141;BME280;24875;48.436;10.298;2023-04-01T14:08:15;95073.75;;;11.80;88.77
39141;BME280;24875;48.436;10.298;2023-04-01T14:10:53;95071.66;;;11.89;88.16
39141;BME280;24875;48.436;10.298;2023-04-01T14:13:31;95071.75;;;12.07;85.88
39141;BME280;24875;48.436;10.298;2023-04-01T14:16:14;95076.63;;;11.79;85.98
39141;BME280;24875;48.436;10.298;2023-04-01T14:18:56;95074.56;;;11.81;86.88
39141;BME280;24875;48.436;10.298;2023-04-01T14:21:33;95080.59;;;11.57;87.83
39141;BME280;24875;48.436;10.298;2023-04-01T14:24:20;95075.91;;;11.59;86.58
39141;BME280;24875;48.436;10.298;2023-04-01T14:27:24;95082.44;;;11.44;87.16
39141;BME280;24875;48.436;10.298;2023-04-01T14:30:12;95077.66;;;11.28;86.65
39141;BME280;24875;48.436;10.298;2023-04-01T14:32:47;95084.16;;;11.25;86.78
39141;BME280;24875;48.436;10.298;2023-04-01T14:35:27;95086.97;;;11.30;85.27
39141;BME280;24875;48.436;10.298;2023-04-01T14:38:25;95088.97;;;11.35;84.49
39141;BME280;24875;48.436;10.298;2023-04-01T14:41:02;95086.50;;;11.46;85.61
39141;BME280;24875;48.436;10.298;2023-04-01T14:44:03;95080.41;;;11.52;84.51
39141;BME280;24875;48.436;10.298;2023-04-01T14:49:41;95089.00;;;11.28;86.90
39141;BME280;24875;48.436;10.298;2023-04-01T14:52:12;95093.63;;;11.39;86.14
39141;BME280;24875;48.436;10.298;2023-04-01T14:54:42;95093.06;;;11.24;83.28
39141;BME280;24875;48.436;10.298;2023-04-01T14:57:13;95093.09;;;11.18;84.17
39141;BME280;24875;48.436;10.298;2023-04-01T14:59:48;95103.88;;;11.16;83.84
39141;BME280;24875;48.436;10.298;2023-04-01T15:02:31;95098.41;;;11.11;82.56
39141;BME280;24875;48.436;10.298;2023-04-01T15:05:11;95095.94;;;11.16;81.60
39141;BME280;24875;48.436;10.298;2023-04-01T15:07:55;95095.53;;;11.19;80.93
39141;BME280;24875;48.436;10.298;2023-04-01T15:10:49;95087.19;;;11.22;78.93
39141;BME280;24875;48.436;10.298;2023-04-01T15:13:30;95093.44;;;11.34;78.88
39141;BME280;24875;48.436;10.298;2023-04-01T15:16:10;95090.63;;;11.29;79.31
39141;BME280;24875;48.436;10.298;2023-04-01T15:18:45;95099.69;;;11.46;78.86
39141;BME280;24875;48.436;10.298;2023-04-01T15:21:29;95099.53;;;11.28;77.84
39141;BME280;24875;48.436;10.298;2023-04-01T15:24:06;95100.28;;;11.48;78.74